sensor_id;sensor_type;location;lat;lon;timestamp;pressure;altitude;pressure_sealevel;temperature
75428;BMP280;64008;55.612;37.698;2023-03-24T00:00:08;98435.72;;;16.60
75428;BMP280;64008;55.612;37.698;2023-03-24T00:02:39;98426.00;;;16.78
75428;BMP280;64008;55.612;37.698;2023-03-24T00:05:11;98425.16;;;16.69
75428;BMP280;64008;55.612;37.698;2023-03-24T00:07:37;98412.84;;;16.45
75428;BMP280;64008;55.612;37.698;2023-03-24T00:10:08;98413.28;;;16.75
75428;BMP280;64008;55.612;37.698;2023-03-24T00:12:36;98408.81;;;16.48
75428;BMP280;64008;55.612;37.698;2023-03-24T00:15:09;98398.31;;;17.10
75428;BMP280;64008;55.612;37.698;2023-03-24T00:17:35;98389.25;;;17.20
75428;BMP280;64008;55.612;37.698;2023-03-24T00:20:09;98374.09;;;16.61
75428;BMP280;64008;55.612;37.698;2023-03-24T00:22:43;98364.72;;;16.41
75428;BMP280;64008;55.612;37.698;2023-03-24T00:25:20;98367.88;;;16.43
75428;BMP280;64008;55.612;37.698;2023-03-24T00:27:48;98354.63;;;16.52
75428;BMP280;64008;55.612;37.698;2023-03-24T00:30:17;98352.47;;;16.63
75428;BMP280;64008;55.612;37.698;2023-03-24T00:32:43;98356.59;;;16.47
75428;BMP280;64008;55.612;37.698;2023-03-24T00:35:12;98354.41;;;16.71
75428;BMP280;64008;55.612;37.698;2023-03-24T00:37:39;98353.88;;;16.60
75428;BMP280;64008;55.612;37.698;2023-03-24T00:40:12;98349.28;;;16.52
75428;BMP280;64008;55.612;37.698;2023-03-24T00:42:39;98356.56;;;16.24
75428;BMP280;64008;55.612;37.698;2023-03-24T00:45:07;98340.09;;;16.08
75428;BMP280;64008;55.612;37.698;2023-03-24T00:47:34;98348.88;;;16.81
75428;BMP280;64008;55.612;37.698;2023-03-24T00:50:07;98352.56;;;16.35
75428;BMP280;64008;55.612;37.698;2023-03-24T00:52:33;98347.66;;;16.65
75428;BMP280;64008;55.612;37.698;2023-03-24T00:55:00;98339.81;;;16.46
75428;BMP280;64008;55.612;37.698;2023-03-24T00:57:30;98335.94;;;16.52
75428;BMP280;64008;55.612;37.698;2023-03-24T01:00:01;98330.22;;;16.59
75428;BMP280;64008;55.612;37.698;2023-03-24T01:02:35;98331.09;;;16.18
75428;BMP280;64008;55.612;37.698;2023-03-24T01:05:01;98324.47;;;16.52
75428;BMP280;64008;55.612;37.698;2023-03-24T01:07:28;98333.34;;;16.38
75428;BMP280;64008;55.612;37.698;2023-03-24T01:09:55;98323.81;;;16.46
75428;BMP280;64008;55.612;37.698;2023-03-24T01:12:31;98323.66;;;16.65
75428;BMP280;64008;55.612;37.698;2023-03-24T01:14:58;98318.03;;;16.44
75428;BMP280;64008;55.612;37.698;2023-03-24T01:17:25;98330.97;;;16.59
75428;BMP280;64008;55.612;37.698;2023-03-24T01:19:52;98327.03;;;16.57
75428;BMP280;64008;55.612;37.698;2023-03-24T01:22:17;98327.34;;;16.78
75428;BMP280;64008;55.612;37.698;2023-03-24T01:24:45;98319.41;;;16.41
75428;BMP280;64008;55.612;37.698;2023-03-24T01:27:11;98314.00;;;16.55
75428;BMP280;64008;55.612;37.698;2023-03-24T01:29:37;98308.75;;;16.05
75428;BMP280;64008;55.612;37.698;2023-03-24T01:32:03;98308.75;;;16.05
75428;BMP280;64008;55.612;37.698;2023-03-24T01:34:28;98323.91;;;16.18
75428;BMP280;64008;55.612;37.698;2023-03-24T01:36:54;98323.16;;;16.63
75428;BMP280;64008;55.612;37.698;2023-03-24T01:39:20;98323.56;;;16.79
75428;BMP280;64008;55.612;37.698;2023-03-24T01:41:45;98323.53;;;17.01
75428;BMP280;64008;55.612;37.698;2023-03-24T01:46:50;98321.19;;;17.40
75428;BMP280;64008;55.612;37.698;2023-03-24T01:49:16;98315.91;;;17.57
75428;BMP280;64008;55.612;37.698;2023-03-24T01:51:44;98311.81;;;17.11
75428;BMP280;64008;55.612;37.698;2023-03-24T01:54:36;98313.03;;;17.05
75428;BMP280;64008;55.612;37.698;2023-03-24T01:59:41;98304.88;;;17.41
75428;BMP280;64008;55.612;37.698;2023-03-24T02:02:07;98298.34;;;17.65
75428;BMP280;64008;55.612;37.698;2023-03-24T02:04:43;98298.22;;;17.30
75428;BMP280;64008;55.612;37.698;2023-03-24T02:07:28;98300.25;;;17.82
75428;BMP280;64008;55.612;37.698;2023-03-24T02:09:56;98293.19;;;18.03
75428;BMP280;64008;55.612;37.698;2023-03-24T02:12:21;98301.34;;;18.33
75428;BMP280;64008;55.612;37.698;2023-03-24T02:14:47;98295.84;;;17.94
75428;BMP280;64008;55.612;37.698;2023-03-24T02:29:53;98284.16;;;17.64
75428;BMP280;64008;55.612;37.698;2023-03-24T02:42:24;98262.69;;;18.22
75428;BMP280;64008;55.612;37.698;2023-03-24T02:47:59;98264.09;;;17.67
75428;BMP280;64008;55.612;37.698;2023-03-24T02:53:37;98257.00;;;17.54
75428;BMP280;64008;55.612;37.698;2023-03-24T02:58:40;98249.13;;;17.40
75428;BMP280;64008;55.612;37.698;2023-03-24T03:01:20;98254.31;;;17.36
75428;BMP280;64008;55.612;37.698;2023-03-24T03:04:01;98244.25;;;17.33
75428;BMP280;64008;55.612;37.698;2023-03-24T03:06:30;98251.19;;;17.43
75428;BMP280;64008;55.612;37.698;2023-03-24T03:09:02;98239.00;;;17.19
75428;BMP280;64008;55.612;37.698;2023-03-24T03:11:28;98240.44;;;17.17
75428;BMP280;64008;55.612;37.698;2023-03-24T03:13:58;98239.22;;;17.23
75428;BMP280;64008;55.612;37.698;2023-03-24T03:16:34;98235.97;;;17.52
75428;BMP280;64008;55.612;37.698;2023-03-24T03:19:26;98222.13;;;17.85
75428;BMP280;64008;55.612;37.698;2023-03-24T03:21:55;98222.94;;;17.94
75428;BMP280;64008;55.612;37.698;2023-03-24T03:24:26;98231.28;;;17.92
75428;BMP280;64008;55.612;37.698;2023-03-24T03:26:59;98227.31;;;17.90
75428;BMP280;64008;55.612;37.698;2023-03-24T03:29:30;98218.66;;;17.32
75428;BMP280;64008;55.612;37.698;2023-03-24T03:32:00;98229.69;;;17.48
75428;BMP280;64008;55.612;37.698;2023-03-24T03:34:49;98210.41;;;17.02
75428;BMP280;64008;55.612;37.698;2023-03-24T03:39:57;98226.09;;;17.04
75428;BMP280;64008;55.612;37.698;2023-03-24T03:42:25;98217.88;;;17.40
75428;BMP280;64008;55.612;37.698;2023-03-24T03:44:50;98221.25;;;17.15
75428;BMP280;64008;55.612;37.698;2023-03-24T03:47:16;98223.16;;;17.14
75428;BMP280;64008;55.612;37.698;2023-03-24T03:49:43;98221.03;;;17.42
75428;BMP280;64008;55.612;37.698;2023-03-24T03:52:09;98219.50;;;17.76
75428;BMP280;64008;55.612;37.698;2023-03-24T03:54:36;98217.03;;;17.14
75428;BMP280;64008;55.612;37.698;2023-03-24T03:57:02;98221.91;;;17.12
75428;BMP280;64008;55.612;37.698;2023-03-24T03:59:38;98217.56;;;17.33
75428;BMP280;64008;55.612;37.698;2023-03-24T04:08:49;98213.97;;;17.64
75428;BMP280;64008;55.612;37.698;2023-03-24T04:14:17;98205.34;;;17.67
75428;BMP280;64008;55.612;37.698;2023-03-24T04:17:14;98214.41;;;17.31
75428;BMP280;64008;55.612;37.698;2023-03-24T04:22:55;98199.66;;;18.03
75428;BMP280;64008;55.612;37.698;2023-03-24T04:25:38;98200.75;;;18.20
75428;BMP280;64008;55.612;37.698;2023-03-24T04:30:48;98190.34;;;18.18
75428;BMP280;64008;55.612;37.698;2023-03-24T04:34:09;98204.13;;;18.46
75428;BMP280;64008;55.612;37.698;2023-03-24T04:36:40;98183.53;;;18.38
75428;BMP280;64008;55.612;37.698;2023-03-24T04:39:13;98193.06;;;17.66
75428;BMP280;64008;55.612;37.698;2023-03-24T04:41:41;98186.19;;;17.65
75428;BMP280;64008;55.612;37.698;2023-03-24T04:44:09;98187.06;;;18.21
75428;BMP280;64008;55.612;37.698;2023-03-24T04:46:36;98189.50;;;18.44
75428;BMP280;64008;55.612;37.698;2023-03-24T04:49:02;98184.50;;;18.72
75428;BMP280;64008;55.612;37.698;2023-03-24T04:51:30;98187.19;;;18.72
75428;BMP280;64008;55.612;37.698;2023-03-24T04:53:56;98189.81;;;18.51
75428;BMP280;64008;55.612;37.698;2023-03-24T04:56:43;98188.28;;;18.71
75428;BMP280;64008;55.612;37.698;2023-03-24T04:59:13;98187.06;;;18.68
75428;BMP280;64008;55.612;37.698;2023-03-24T05:01:40;98188.25;;;18.50
75428;BMP280;64008;55.612;37.698;2023-03-24T05:04:06;98191.44;;;18.73
75428;BMP280;64008;55.612;37.698;2023-03-24T05:06:32;98188.09;;;18.46
75428;BMP280;64008;55.612;37.698;2023-03-24T05:08:58;98188.56;;;18.48
75428;BMP280;64008;55.612;37.698;2023-03-24T05:11:25;98183.34;;;18.43
75428;BMP280;64008;55.612;37.698;2023-03-24T05:13:52;98181.00;;;18.42
75428;BMP280;64008;55.612;37.698;2023-03-24T05:16:17;98187.81;;;18.77
75428;BMP280;64008;55.612;37.698;2023-03-24T05:18:43;98193.06;;;18.56
75428;BMP280;64008;55.612;37.698;2023-03-24T05:21:09;98189.38;;;18.99
75428;BMP280;64008;55.612;37.698;2023-03-24T05:23:34;98190.88;;;19.39
75428;BMP280;64008;55.612;37.698;2023-03-24T05:26:00;98184.66;;;19.68
75428;BMP280;64008;55.612;37.698;2023-03-24T05:28:26;98191.78;;;19.97
75428;BMP280;64008;55.612;37.698;2023-03-24T05:30:51;98184.78;;;20.05
75428;BMP280;64008;55.612;37.698;2023-03-24T05:33:17;98194.56;;;20.01
75428;BMP280;64008;55.612;37.698;2023-03-24T05:35:42;98186.13;;;20.23
75428;BMP280;64008;55.612;37.698;2023-03-24T05:38:08;98188.25;;;20.18
75428;BMP280;64008;55.612;37.698;2023-03-24T05:40:35;98189.94;;;20.35
75428;BMP280;64008;55.612;37.698;2023-03-24T05:43:00;98184.13;;;20.20
75428;BMP280;64008;55.612;37.698;2023-03-24T05:45:26;98192.06;;;20.29
75428;BMP280;64008;55.612;37.698;2023-03-24T05:47:54;98188.69;;;20.20
75428;BMP280;64008;55.612;37.698;2023-03-24T05:50:20;98189.19;;;20.46
75428;BMP280;64008;55.612;37.698;2023-03-24T05:52:46;98182.38;;;20.49
75428;BMP280;64008;55.612;37.698;2023-03-24T05:55:12;98187.97;;;20.56
75428;BMP280;64008;55.612;37.698;2023-03-24T05:57:40;98184.25;;;20.73
75428;BMP280;64008;55.612;37.698;2023-03-24T06:00:06;98186.84;;;20.45
75428;BMP280;64008;55.612;37.698;2023-03-24T06:02:44;98190.50;;;20.89
75428;BMP280;64008;55.612;37.698;2023-03-24T06:05:10;98193.13;;;19.49
75428;BMP280;64008;55.612;37.698;2023-03-24T06:07:39;98189.91;;;19.77
75428;BMP280;64008;55.612;37.698;2023-03-24T06:10:08;98210.56;;;19.97
75428;BMP280;64008;55.612;37.698;2023-03-24T06:12:36;98184.19;;;19.03
75428;BMP280;64008;55.612;37.698;2023-03-24T06:15:01;98197.88;;;19.52
75428;BMP280;64008;55.612;37.698;2023-03-24T06:17:29;98191.59;;;18.21
75428;BMP280;64008;55.612;37.698;2023-03-24T06:19:54;98191.88;;;18.84
75428;BMP280;64008;55.612;37.698;2023-03-24T06:22:28;98181.81;;;18.33
75428;BMP280;64008;55.612;37.698;2023-03-24T06:24:53;98184.88;;;18.06
75428;BMP280;64008;55.612;37.698;2023-03-24T06:27:21;98190.78;;;18.29
75428;BMP280;64008;55.612;37.698;2023-03-24T06:29:49;98183.34;;;17.53
75428;BMP280;64008;55.612;37.698;2023-03-24T06:32:18;98180.66;;;17.61
75428;BMP280;64008;55.612;37.698;2023-03-24T06:34:43;98179.25;;;17.46
75428;BMP280;64008;55.612;37.698;2023-03-24T06:37:09;98184.25;;;18.09
75428;BMP280;64008;55.612;37.698;2023-03-24T06:39:34;98180.78;;;16.33
75428;BMP280;64008;55.612;37.698;2023-03-24T06:42:00;98180.19;;;17.33
75428;BMP280;64008;55.612;37.698;2023-03-24T06:44:26;98184.19;;;18.18
75428;BMP280;64008;55.612;37.698;2023-03-24T06:46:51;98190.91;;;18.79
75428;BMP280;64008;55.612;37.698;2023-03-24T06:49:17;98181.66;;;19.49
75428;BMP280;64008;55.612;37.698;2023-03-24T06:51:42;98164.69;;;20.23
75428;BMP280;64008;55.612;37.698;2023-03-24T06:54:08;98178.53;;;20.99
75428;BMP280;64008;55.612;37.698;2023-03-24T06:56:33;98183.25;;;20.78
75428;BMP280;64008;55.612;37.698;2023-03-24T06:58:59;98180.69;;;21.62
75428;BMP280;64008;55.612;37.698;2023-03-24T07:01:25;98173.66;;;21.57
75428;BMP280;64008;55.612;37.698;2023-03-24T07:03:51;98171.00;;;21.73
75428;BMP280;64008;55.612;37.698;2023-03-24T07:06:17;98162.84;;;21.85
75428;BMP280;64008;55.612;37.698;2023-03-24T07:08:43;98169.63;;;22.11
75428;BMP280;64008;55.612;37.698;2023-03-24T07:11:10;98166.25;;;22.14
75428;BMP280;64008;55.612;37.698;2023-03-24T07:13:36;98177.84;;;21.71
75428;BMP280;64008;55.612;37.698;2023-03-24T07:16:01;98169.28;;;21.97
75428;BMP280;64008;55.612;37.698;2023-03-24T07:18:27;98175.50;;;21.69
75428;BMP280;64008;55.612;37.698;2023-03-24T07:20:52;98180.28;;;21.92
75428;BMP280;64008;55.612;37.698;2023-03-24T07:23:18;98182.47;;;22.18
75428;BMP280;64008;55.612;37.698;2023-03-24T07:25:44;98178.56;;;21.99
75428;BMP280;64008;55.612;37.698;2023-03-24T07:28:10;98175.72;;;21.64
75428;BMP280;64008;55.612;37.698;2023-03-24T07:30:36;98189.00;;;21.57
75428;BMP280;64008;55.612;37.698;2023-03-24T07:33:05;98179.41;;;21.15
75428;BMP280;64008;55.612;37.698;2023-03-24T07:35:31;98183.00;;;21.07
75428;BMP280;64008;55.612;37.698;2023-03-24T07:37:58;98171.44;;;21.07
75428;BMP280;64008;55.612;37.698;2023-03-24T07:40:23;98177.19;;;20.93
75428;BMP280;64008;55.612;37.698;2023-03-24T07:42:49;98180.66;;;20.93
75428;BMP280;64008;55.612;37.698;2023-03-24T07:45:15;98183.06;;;20.70
75428;BMP280;64008;55.612;37.698;2023-03-24T07:47:45;98184.03;;;20.78
75428;BMP280;64008;55.612;37.698;2023-03-24T07:50:12;98175.66;;;20.30
75428;BMP280;64008;55.612;37.698;2023-03-24T07:52:39;98182.91;;;20.42
75428;BMP280;64008;55.612;37.698;2023-03-24T07:55:07;98191.19;;;20.62
75428;BMP280;64008;55.612;37.698;2023-03-24T07:57:34;98183.59;;;20.64
75428;BMP280;64008;55.612;37.698;2023-03-24T08:00:05;98199.91;;;20.59
75428;BMP280;64008;55.612;37.698;2023-03-24T08:02:47;98203.50;;;19.93
75428;BMP280;64008;55.612;37.698;2023-03-24T08:05:13;98213.84;;;19.82
75428;BMP280;64008;55.612;37.698;2023-03-24T08:07:43;98211.63;;;19.84
75428;BMP280;64008;55.612;37.698;2023-03-24T08:10:13;98202.97;;;20.12
75428;BMP280;64008;55.612;37.698;2023-03-24T08:12:39;98209.59;;;20.26
75428;BMP280;64008;55.612;37.698;2023-03-24T08:15:06;98205.44;;;20.04
75428;BMP280;64008;55.612;37.698;2023-03-24T08:17:32;98213.72;;;19.78
75428;BMP280;64008;55.612;37.698;2023-03-24T08:19:58;98222.72;;;19.95
75428;BMP280;64008;55.612;37.698;2023-03-24T08:22:23;98212.38;;;19.84
75428;BMP280;64008;55.612;37.698;2023-03-24T08:24:49;98214.16;;;19.80
75428;BMP280;64008;55.612;37.698;2023-03-24T08:27:15;98208.09;;;19.71
75428;BMP280;64008;55.612;37.698;2023-03-24T08:29:42;98219.00;;;19.87
75428;BMP280;64008;55.612;37.698;2023-03-24T08:32:08;98211.34;;;19.77
75428;BMP280;64008;55.612;37.698;2023-03-24T08:34:33;98220.72;;;18.69
75428;BMP280;64008;55.612;37.698;2023-03-24T08:36:59;98211.13;;;18.68
75428;BMP280;64008;55.612;37.698;2023-03-24T08:39:25;98211.94;;;17.52
75428;BMP280;64008;55.612;37.698;2023-03-24T08:41:50;98233.72;;;17.37
75428;BMP280;64008;55.612;37.698;2023-03-24T08:44:18;98223.44;;;17.04
75428;BMP280;64008;55.612;37.698;2023-03-24T08:46:44;98214.78;;;16.98
75428;BMP280;64008;55.612;37.698;2023-03-24T08:49:09;98224.13;;;16.87
75428;BMP280;64008;55.612;37.698;2023-03-24T08:51:35;98219.94;;;16.55
75428;BMP280;64008;55.612;37.698;2023-03-24T08:54:01;98228.94;;;16.36
75428;BMP280;64008;55.612;37.698;2023-03-24T08:56:28;98228.75;;;16.33
75428;BMP280;64008;55.612;37.698;2023-03-24T08:58:54;98224.00;;;16.07
75428;BMP280;64008;55.612;37.698;2023-03-24T09:01:20;98231.66;;;16.76
75428;BMP280;64008;55.612;37.698;2023-03-24T09:03:47;98234.63;;;16.75
75428;BMP280;64008;55.612;37.698;2023-03-24T09:06:14;98223.53;;;16.81
75428;BMP280;64008;55.612;37.698;2023-03-24T09:08:40;98227.06;;;16.45
75428;BMP280;64008;55.612;37.698;2023-03-24T09:11:06;98239.16;;;16.74
75428;BMP280;64008;55.612;37.698;2023-03-24T09:13:31;98242.97;;;17.30
75428;BMP280;64008;55.612;37.698;2023-03-24T09:16:03;98226.38;;;16.31
75428;BMP280;64008;55.612;37.698;2023-03-24T09:18:29;98234.69;;;16.61
75428;BMP280;64008;55.612;37.698;2023-03-24T09:20:54;98242.56;;;15.62
75428;BMP280;64008;55.612;37.698;2023-03-24T09:23:20;98249.34;;;15.68
75428;BMP280;64008;55.612;37.698;2023-03-24T09:25:52;98254.38;;;15.70
75428;BMP280;64008;55.612;37.698;2023-03-24T09:28:18;98244.19;;;15.99
75428;BMP280;64008;55.612;37.698;2023-03-24T09:30:44;98244.34;;;16.79
75428;BMP280;64008;55.612;37.698;2023-03-24T09:33:10;98249.06;;;16.51
75428;BMP280;64008;55.612;37.698;2023-03-24T09:35:36;98243.06;;;16.23
75428;BMP280;64008;55.612;37.698;2023-03-24T09:38:02;98245.22;;;17.63
75428;BMP280;64008;55.612;37.698;2023-03-24T09:40:30;98249.97;;;17.92
75428;BMP280;64008;55.612;37.698;2023-03-24T09:43:03;98258.38;;;16.94
75428;BMP280;64008;55.612;37.698;2023-03-24T09:45:33;98251.09;;;16.77
75428;BMP280;64008;55.612;37.698;2023-03-24T09:48:07;98248.00;;;16.52
75428;BMP280;64008;55.612;37.698;2023-03-24T09:50:45;98262.03;;;16.66
75428;BMP280;64008;55.612;37.698;2023-03-24T09:56:18;98263.72;;;18.94
75428;BMP280;64008;55.612;37.698;2023-03-24T09:58:47;98268.13;;;19.49
75428;BMP280;64008;55.612;37.698;2023-03-24T10:01:15;98273.13;;;19.80
75428;BMP280;64008;55.612;37.698;2023-03-24T10:03:43;98277.31;;;20.02
75428;BMP280;64008;55.612;37.698;2023-03-24T10:06:29;98272.84;;;19.94
75428;BMP280;64008;55.612;37.698;2023-03-24T10:11:38;98275.59;;;20.40
75428;BMP280;64008;55.612;37.698;2023-03-24T10:16:42;98280.91;;;20.27
75428;BMP280;64008;55.612;37.698;2023-03-24T10:25:01;98286.38;;;20.19
75428;BMP280;64008;55.612;37.698;2023-03-24T10:30:03;98278.91;;;20.03
75428;BMP280;64008;55.612;37.698;2023-03-24T10:32:32;98273.84;;;20.23
75428;BMP280;64008;55.612;37.698;2023-03-24T10:35:00;98282.94;;;20.30
75428;BMP280;64008;55.612;37.698;2023-03-24T10:37:34;98284.50;;;20.32
75428;BMP280;64008;55.612;37.698;2023-03-24T10:40:00;98275.44;;;20.24
75428;BMP280;64008;55.612;37.698;2023-03-24T10:42:30;98275.50;;;20.15
75428;BMP280;64008;55.612;37.698;2023-03-24T10:44:57;98293.41;;;20.23
75428;BMP280;64008;55.612;37.698;2023-03-24T10:47:27;98288.28;;;19.97
75428;BMP280;64008;55.612;37.698;2023-03-24T10:49:58;98288.22;;;20.06
75428;BMP280;64008;55.612;37.698;2023-03-24T10:52:25;98289.66;;;20.37
75428;BMP280;64008;55.612;37.698;2023-03-24T10:54:59;98303.59;;;20.30
75428;BMP280;64008;55.612;37.698;2023-03-24T10:57:28;98310.72;;;20.26
75428;BMP280;64008;55.612;37.698;2023-03-24T11:00:09;98301.97;;;20.17
75428;BMP280;64008;55.612;37.698;2023-03-24T11:02:43;98295.13;;;20.07
75428;BMP280;64008;55.612;37.698;2023-03-24T11:05:13;98305.25;;;20.22
75428;BMP280;64008;55.612;37.698;2023-03-24T11:07:47;98301.03;;;20.46
75428;BMP280;64008;55.612;37.698;2023-03-24T11:10:16;98322.31;;;20.18
75428;BMP280;64008;55.612;37.698;2023-03-24T11:15:23;98314.41;;;20.00
75428;BMP280;64008;55.612;37.698;2023-03-24T11:17:56;98318.88;;;20.17
75428;BMP280;64008;55.612;37.698;2023-03-24T11:20:35;98329.72;;;20.33
75428;BMP280;64008;55.612;37.698;2023-03-24T11:23:20;98303.81;;;20.37
75428;BMP280;64008;55.612;37.698;2023-03-24T11:26:07;98305.38;;;20.84
75428;BMP280;64008;55.612;37.698;2023-03-24T11:28:39;98310.63;;;20.80
75428;BMP280;64008;55.612;37.698;2023-03-24T11:31:08;98332.09;;;20.80
75428;BMP280;64008;55.612;37.698;2023-03-24T11:33:42;98324.31;;;21.00
75428;BMP280;64008;55.612;37.698;2023-03-24T11:39:26;98322.28;;;21.86
75428;BMP280;64008;55.612;37.698;2023-03-24T11:44:44;98321.03;;;21.31
75428;BMP280;64008;55.612;37.698;2023-03-24T11:58:15;98336.69;;;20.80
75428;BMP280;64008;55.612;37.698;2023-03-24T12:00:57;98322.94;;;20.93
75428;BMP280;64008;55.612;37.698;2023-03-24T12:09:13;98337.41;;;21.26
75428;BMP280;64008;55.612;37.698;2023-03-24T12:17:20;98345.19;;;21.31
75428;BMP280;64008;55.612;37.698;2023-03-24T12:19:59;98353.16;;;21.15
75428;BMP280;64008;55.612;37.698;2023-03-24T12:39:34;98376.72;;;20.97
75428;BMP280;64008;55.612;37.698;2023-03-24T12:42:12;98373.63;;;21.19
75428;BMP280;64008;55.612;37.698;2023-03-24T12:45:04;98372.03;;;21.68
75428;BMP280;64008;55.612;37.698;2023-03-24T12:50:18;98390.94;;;21.83
75428;BMP280;64008;55.612;37.698;2023-03-24T12:55:28;98376.13;;;21.49
75428;BMP280;64008;55.612;37.698;2023-03-24T13:03:52;98372.72;;;22.05
75428;BMP280;64008;55.612;37.698;2023-03-24T13:06:25;98393.88;;;21.91
75428;BMP280;64008;55.612;37.698;2023-03-24T13:11:46;98387.75;;;21.29
75428;BMP280;64008;55.612;37.698;2023-03-24T13:14:19;98383.16;;;21.54
75428;BMP280;64008;55.612;37.698;2023-03-24T13:16:47;98382.28;;;21.25
75428;BMP280;64008;55.612;37.698;2023-03-24T13:19:17;98386.28;;;21.19
75428;BMP280;64008;55.612;37.698;2023-03-24T13:21:43;98381.13;;;21.14
75428;BMP280;64008;55.612;37.698;2023-03-24T13:24:11;98384.97;;;21.25
75428;BMP280;64008;55.612;37.698;2023-03-24T13:32:20;98399.16;;;20.68
75428;BMP280;64008;55.612;37.698;2023-03-24T13:37:39;98388.84;;;21.28
75428;BMP280;64008;55.612;37.698;2023-03-24T13:40:10;98394.34;;;21.31
75428;BMP280;64008;55.612;37.698;2023-03-24T13:42:48;98380.91;;;21.44
75428;BMP280;64008;55.612;37.698;2023-03-24T13:50:23;98377.59;;;22.43
75428;BMP280;64008;55.612;37.698;2023-03-24T13:52:49;98390.31;;;22.59
75428;BMP280;64008;55.612;37.698;2023-03-24T13:55:25;98383.81;;;22.60
75428;BMP280;64008;55.612;37.698;2023-03-24T13:57:58;98391.13;;;22.75
75428;BMP280;64008;55.612;37.698;2023-03-24T14:00:24;98406.03;;;22.72
75428;BMP280;64008;55.612;37.698;2023-03-24T14:02:54;98388.66;;;22.26
75428;BMP280;64008;55.612;37.698;2023-03-24T14:13:01;98406.50;;;22.31
75428;BMP280;64008;55.612;37.698;2023-03-24T14:15:32;98401.81;;;21.75
75428;BMP280;64008;55.612;37.698;2023-03-24T14:18:24;98406.44;;;21.50
75428;BMP280;64008;55.612;37.698;2023-03-24T14:21:05;98421.56;;;21.30
75428;BMP280;64008;55.612;37.698;2023-03-24T14:23:39;98423.22;;;21.47
75428;BMP280;64008;55.612;37.698;2023-03-24T14:26:07;98424.78;;;21.35
75428;BMP280;64008;55.612;37.698;2023-03-24T14:28:40;98427.06;;;21.46
75428;BMP280;64008;55.612;37.698;2023-03-24T14:33:54;98439.91;;;21.40
75428;BMP280;64008;55.612;37.698;2023-03-24T14:36:39;98444.50;;;21.64
75428;BMP280;64008;55.612;37.698;2023-03-24T14:39:18;98445.63;;;21.51
75428;BMP280;64008;55.612;37.698;2023-03-24T14:41:44;98438.59;;;21.46
75428;BMP280;64008;55.612;37.698;2023-03-24T14:44:11;98434.88;;;21.51
75428;BMP280;64008;55.612;37.698;2023-03-24T14:46:56;98427.16;;;21.49
75428;BMP280;64008;55.612;37.698;2023-03-24T14:49:32;98440.59;;;21.74
75428;BMP280;64008;55.612;37.698;2023-03-24T14:52:02;98462.88;;;21.87
75428;BMP280;64008;55.612;37.698;2023-03-24T14:54:59;98445.41;;;21.56
75428;BMP280;64008;55.612;37.698;2023-03-24T14:57:40;98443.59;;;21.84
75428;BMP280;64008;55.612;37.698;2023-03-24T15:00:32;98434.72;;;21.96
75428;BMP280;64008;55.612;37.698;2023-03-24T15:03:15;98444.84;;;21.50
75428;BMP280;64008;55.612;37.698;2023-03-24T15:05:42;98447.00;;;21.57
75428;BMP280;64008;55.612;37.698;2023-03-24T15:08:19;98466.56;;;21.57
75428;BMP280;64008;55.612;37.698;2023-03-24T15:10:56;98459.19;;;21.67
75428;BMP280;64008;55.612;37.698;2023-03-24T15:16:03;98482.34;;;21.96
75428;BMP280;64008;55.612;37.698;2023-03-24T15:18:31;98462.91;;;22.15
75428;BMP280;64008;55.612;37.698;2023-03-24T15:20:57;98466.06;;;22.04
75428;BMP280;64008;55.612;37.698;2023-03-24T15:23:26;98467.94;;;22.16
75428;BMP280;64008;55.612;37.698;2023-03-24T15:25:52;98487.81;;;22.12
75428;BMP280;64008;55.612;37.698;2023-03-24T15:28:28;98480.78;;;21.95
75428;BMP280;64008;55.612;37.698;2023-03-24T15:30:56;98491.31;;;21.88
75428;BMP280;64008;55.612;37.698;2023-03-24T15:33:23;98494.41;;;22.14
75428;BMP280;64008;55.612;37.698;2023-03-24T15:35:55;98488.03;;;22.19
75428;BMP280;64008;55.612;37.698;2023-03-24T15:38:32;98490.75;;;22.47
75428;BMP280;64008;55.612;37.698;2023-03-24T15:43:23;98497.50;;;22.69
75428;BMP280;64008;55.612;37.698;2023-03-24T15:45:52;98495.78;;;22.77
75428;BMP280;64008;55.612;37.698;2023-03-24T15:48:21;98493.94;;;22.65
75428;BMP280;64008;55.612;37.698;2023-03-24T15:51:03;98495.63;;;22.69
75428;BMP280;64008;55.612;37.698;2023-03-24T16:01:27;98507.25;;;22.73
75428;BMP280;64008;55.612;37.698;2023-03-24T16:04:01;98521.66;;;22.13
75428;BMP280;64008;55.612;37.698;2023-03-24T16:06:39;98526.13;;;21.84
75428;BMP280;64008;55.612;37.698;2023-03-24T16:09:12;98526.94;;;21.84
75428;BMP280;64008;55.612;37.698;2023-03-24T16:11:38;98527.94;;;21.55
75428;BMP280;64008;55.612;37.698;2023-03-24T16:14:24;98542.50;;;21.54
75428;BMP280;64008;55.612;37.698;2023-03-24T16:16:54;98539.00;;;21.42
75428;BMP280;64008;55.612;37.698;2023-03-24T16:19:20;98535.94;;;21.31
75428;BMP280;64008;55.612;37.698;2023-03-24T16:21:48;98541.22;;;21.39
75428;BMP280;64008;55.612;37.698;2023-03-24T16:24:13;98534.66;;;21.49
75428;BMP280;64008;55.612;37.698;2023-03-24T16:26:39;98549.19;;;21.48
75428;BMP280;64008;55.612;37.698;2023-03-24T16:29:15;98545.78;;;21.39
75428;BMP280;64008;55.612;37.698;2023-03-24T16:31:41;98545.28;;;21.58
75428;BMP280;64008;55.612;37.698;2023-03-24T16:34:08;98545.41;;;21.74
75428;BMP280;64008;55.612;37.698;2023-03-24T16:36:33;98551.25;;;22.00
75428;BMP280;64008;55.612;37.698;2023-03-24T16:39:00;98562.44;;;21.66
75428;BMP280;64008;55.612;37.698;2023-03-24T16:41:26;98562.94;;;21.47
75428;BMP280;64008;55.612;37.698;2023-03-24T16:43:52;98563.44;;;21.61
75428;BMP280;64008;55.612;37.698;2023-03-24T16:48:52;98572.91;;;21.34
75428;BMP280;64008;55.612;37.698;2023-03-24T16:51:18;98575.22;;;21.23
75428;BMP280;64008;55.612;37.698;2023-03-24T16:53:45;98582.59;;;21.26
75428;BMP280;64008;55.612;37.698;2023-03-24T16:56:19;98586.31;;;21.34
75428;BMP280;64008;55.612;37.698;2023-03-24T16:58:45;98601.06;;;21.28
75428;BMP280;64008;55.612;37.698;2023-03-24T17:01:33;98584.41;;;21.34
75428;BMP280;64008;55.612;37.698;2023-03-24T17:04:14;98585.59;;;21.12